sensor_id;sensor_type;location;lat;lon;timestamp;pressure;altitude;pressure_sealevel;temperature;humidity
47104;BME280;32853;52.164;5.400;2023-03-14T00:00:10;98745.88;;;12.59;100.00
47104;BME280;32853;52.164;5.400;2023-03-14T00:02:37;98762.56;;;12.58;100.00
47104;BME280;32853;52.164;5.400;2023-03-14T00:05:03;98762.34;;;12.49;100.00
47104;BME280;32853;52.164;5.400;2023-03-14T00:07:39;98761.19;;;12.42;100.00
47104;BME280;32853;52.164;5.400;2023-03-14T00:12:36;98764.53;;;12.33;100.00
47104;BME280;32853;52.164;5.400;2023-03-14T00:17:38;98755.47;;;12.37;100.00
47104;BME280;32853;52.164;5.400;2023-03-14T00:22:36;98762.38;;;12.38;100.00
47104;BME280;32853;52.164;5.400;2023-03-14T00:25:15;98751.72;;;12.51;100.00
47104;BME280;32853;52.164;5.400;2023-03-14T00:27:43;98750.41;;;12.57;100.00
47104;BME280;32853;52.164;5.400;2023-03-14T00:30:09;98756.25;;;12.49;100.00
47104;BME280;32853;52.164;5.400;2023-03-14T00:32:34;98746.59;;;12.49;100.00
47104;BME280;32853;52.164;5.400;2023-03-14T00:37:32;98750.97;;;12.60;100.00
47104;BME280;32853;52.164;5.400;2023-03-14T00:39:57;98760.41;;;12.51;100.00
47104;BME280;32853;52.164;5.400;2023-03-14T00:42:23;98759.88;;;12.37;100.00
47104;BME280;32853;52.164;5.400;2023-03-14T00:44:48;98763.31;;;12.37;100.00
47104;BME280;32853;52.164;5.400;2023-03-14T00:47:14;98767.19;;;12.22;100.00
47104;BME280;32853;52.164;5.400;2023-03-14T00:49:40;98784.19;;;12.28;100.00
47104;BME280;32853;52.164;5.400;2023-03-14T00:52:16;98765.03;;;12.16;100.00
47104;BME280;32853;52.164;5.400;2023-03-14T00:54:41;98772.44;;;12.11;100.00
47104;BME280;32853;52.164;5.400;2023-03-14T00:57:07;98758.13;;;12.26;100.00
47104;BME280;32853;52.164;5.400;2023-03-14T00:59:32;98758.13;;;12.15;100.00
47104;BME280;32853;52.164;5.400;2023-03-14T01:01:57;98774.66;;;12.27;100.00
47104;BME280;32853;52.164;5.400;2023-03-14T01:04:22;98777.66;;;12.33;100.00
47104;BME280;32853;52.164;5.400;2023-03-14T01:06:48;98785.75;;;12.08;100.00
47104;BME280;32853;52.164;5.400;2023-03-14T01:09:13;98778.13;;;12.16;100.00
47104;BME280;32853;52.164;5.400;2023-03-14T01:11:38;98775.78;;;12.13;100.00
47104;BME280;32853;52.164;5.400;2023-03-14T01:14:03;98770.78;;;11.99;100.00
47104;BME280;32853;52.164;5.400;2023-03-14T01:16:30;98779.22;;;12.02;100.00
47104;BME280;32853;52.164;5.400;2023-03-14T01:18:56;98777.56;;;12.01;100.00
47104;BME280;32853;52.164;5.400;2023-03-14T01:21:25;98783.84;;;11.65;100.00
47104;BME280;32853;52.164;5.400;2023-03-14T01:23:51;98783.97;;;11.75;100.00
47104;BME280;32853;52.164;5.400;2023-03-14T01:26:17;98786.16;;;11.81;100.00
47104;BME280;32853;52.164;5.400;2023-03-14T01:28:46;98791.63;;;11.89;100.00
47104;BME280;32853;52.164;5.400;2023-03-14T01:31:12;98791.09;;;11.50;100.00
47104;BME280;32853;52.164;5.400;2023-03-14T01:33:37;98786.88;;;11.25;100.00
47104;BME280;32853;52.164;5.400;2023-03-14T01:36:03;98787.38;;;11.42;100.00
47104;BME280;32853;52.164;5.400;2023-03-14T01:38:35;98789.06;;;11.43;100.00
47104;BME280;32853;52.164;5.400;2023-03-14T01:41:03;98775.50;;;11.49;100.00
47104;BME280;32853;52.164;5.400;2023-03-14T01:43:28;98788.00;;;11.45;100.00
47104;BME280;32853;52.164;5.400;2023-03-14T01:48:31;98774.53;;;11.39;100.00
47104;BME280;32853;52.164;5.400;2023-03-14T01:50:56;98772.16;;;11.47;100.00
47104;BME280;32853;52.164;5.400;2023-03-14T01:53:22;98775.38;;;11.50;100.00
47104;BME280;32853;52.164;5.400;2023-03-14T01:55:50;98761.94;;;11.44;100.00
47104;BME280;32853;52.164;5.400;2023-03-14T01:58:17;98765.00;;;11.38;100.00
47104;BME280;32853;52.164;5.400;2023-03-14T02:00:43;98756.94;;;11.52;100.00
47104;BME280;32853;52.164;5.400;2023-03-14T02:03:16;98752.44;;;11.54;100.00
47104;BME280;32853;52.164;5.400;2023-03-14T02:05:42;98748.16;;;11.53;100.00
47104;BME280;32853;52.164;5.400;2023-03-14T02:08:10;98755.63;;;11.46;100.00
47104;BME280;32853;52.164;5.400;2023-03-14T02:10:37;98762.41;;;11.49;100.00
47104;BME280;32853;52.164;5.400;2023-03-14T02:13:03;98757.06;;;11.73;100.00
47104;BME280;32853;52.164;5.400;2023-03-14T02:15:29;98738.16;;;11.69;100.00
47104;BME280;32853;52.164;5.400;2023-03-14T02:18:03;98749.19;;;11.50;100.00
47104;BME280;32853;52.164;5.400;2023-03-14T02:25:39;98741.59;;;11.36;100.00
47104;BME280;32853;52.164;5.400;2023-03-14T02:28:07;98738.50;;;11.53;100.00
47104;BME280;32853;52.164;5.400;2023-03-14T02:30:37;98739.44;;;11.52;100.00
47104;BME280;32853;52.164;5.400;2023-03-14T02:33:20;98735.78;;;11.77;100.00
47104;BME280;32853;52.164;5.400;2023-03-14T02:41:07;98735.78;;;11.55;100.00
47104;BME280;32853;52.164;5.400;2023-03-14T02:43:38;98726.84;;;11.57;100.00
47104;BME280;32853;52.164;5.400;2023-03-14T02:46:03;98736.47;;;11.68;100.00
47104;BME280;32853;52.164;5.400;2023-03-14T02:48:31;98737.44;;;11.56;100.00
47104;BME280;32853;52.164;5.400;2023-03-14T02:51:02;98732.31;;;11.43;100.00
47104;BME280;32853;52.164;5.400;2023-03-14T02:53:29;98729.84;;;11.64;100.00
47104;BME280;32853;52.164;5.400;2023-03-14T02:55:54;98723.50;;;11.78;100.00
47104;BME280;32853;52.164;5.400;2023-03-14T02:58:20;98713.75;;;11.69;100.00
47104;BME280;32853;52.164;5.400;2023-03-14T03:00:46;98729.91;;;11.51;100.00
47104;BME280;32853;52.164;5.400;2023-03-14T03:03:11;98719.09;;;11.67;100.00
47104;BME280;32853;52.164;5.400;2023-03-14T03:05:38;98714.34;;;11.61;100.00
47104;BME280;32853;52.164;5.400;2023-03-14T03:08:04;98714.81;;;11.66;100.00
47104;BME280;32853;52.164;5.400;2023-03-14T03:10:31;98709.22;;;11.71;100.00
47104;BME280;32853;52.164;5.400;2023-03-14T03:12:59;98720.41;;;11.61;100.00
47104;BME280;32853;52.164;5.400;2023-03-14T03:15:24;98713.88;;;11.56;100.00
47104;BME280;32853;52.164;5.400;2023-03-14T03:17:49;98719.56;;;11.61;100.00
47104;BME280;32853;52.164;5.400;2023-03-14T03:20:14;98716.25;;;11.48;100.00
47104;BME280;32853;52.164;5.400;2023-03-14T03:22:40;98707.19;;;11.63;100.00
47104;BME280;32853;52.164;5.400;2023-03-14T03:25:06;98699.25;;;11.64;100.00
47104;BME280;32853;52.164;5.400;2023-03-14T03:27:32;98693.28;;;11.51;100.00
47104;BME280;32853;52.164;5.400;2023-03-14T03:29:57;98701.94;;;11.63;100.00
47104;BME280;32853;52.164;5.400;2023-03-14T03:32:23;98696.25;;;11.69;100.00
47104;BME280;32853;52.164;5.400;2023-03-14T03:34:48;98704.47;;;11.64;100.00
47104;BME280;32853;52.164;5.400;2023-03-14T03:37:13;98698.03;;;11.69;100.00
47104;BME280;32853;52.164;5.400;2023-03-14T03:39:38;98693.75;;;11.56;100.00
47104;BME280;32853;52.164;5.400;2023-03-14T03:42:03;98690.56;;;11.64;100.00
47104;BME280;32853;52.164;5.400;2023-03-14T03:44:41;98687.69;;;11.67;100.00
47104;BME280;32853;52.164;5.400;2023-03-14T03:47:06;98687.56;;;11.69;100.00
47104;BME280;32853;52.164;5.400;2023-03-14T03:49:31;98679.84;;;11.56;100.00
47104;BME280;32853;52.164;5.400;2023-03-14T03:51:57;98680.09;;;11.64;100.00
47104;BME280;32853;52.164;5.400;2023-03-14T03:54:24;98693.50;;;11.59;100.00
47104;BME280;32853;52.164;5.400;2023-03-14T03:56:50;98681.13;;;11.61;100.00
47104;BME280;32853;52.164;5.400;2023-03-14T03:59:15;98677.94;;;11.58;100.00
47104;BME280;32853;52.164;5.400;2023-03-14T04:01:40;98680.09;;;11.64;100.00
47104;BME280;32853;52.164;5.400;2023-03-14T04:04:05;98689.09;;;11.71;100.00
47104;BME280;32853;52.164;5.400;2023-03-14T04:06:31;98673.78;;;11.67;100.00
47104;BME280;32853;52.164;5.400;2023-03-14T04:08:56;98683.63;;;11.74;100.00
47104;BME280;32853;52.164;5.400;2023-03-14T04:11:21;98676.03;;;11.60;100.00
47104;BME280;32853;52.164;5.400;2023-03-14T04:13:47;98681.94;;;11.73;100.00
47104;BME280;32853;52.164;5.400;2023-03-14T04:19:00;98691.84;;;11.92;100.00
47104;BME280;32853;52.164;5.400;2023-03-14T04:21:27;98696.84;;;11.95;100.00
47104;BME280;32853;52.164;5.400;2023-03-14T04:26:26;98699.25;;;11.87;100.00
47104;BME280;32853;52.164;5.400;2023-03-14T04:28:57;98694.09;;;11.97;100.00
47104;BME280;32853;52.164;5.400;2023-03-14T04:31:25;98695.63;;;12.10;100.00
47104;BME280;32853;52.164;5.400;2023-03-14T04:33:50;98687.41;;;12.04;100.00
47104;BME280;32853;52.164;5.400;2023-03-14T04:36:16;98686.03;;;11.88;100.00
47104;BME280;32853;52.164;5.400;2023-03-14T04:38:41;98686.25;;;11.85;100.00
47104;BME280;32853;52.164;5.400;2023-03-14T04:41:06;98689.09;;;11.71;100.00
47104;BME280;32853;52.164;5.400;2023-03-14T04:43:32;98685.53;;;11.83;100.00
47104;BME280;32853;52.164;5.400;2023-03-14T04:45:58;98681.13;;;11.95;100.00
47104;BME280;32853;52.164;5.400;2023-03-14T04:48:24;98673.63;;;12.02;100.00
47104;BME280;32853;52.164;5.400;2023-03-14T04:50:54;98683.50;;;11.98;100.00
47104;BME280;32853;52.164;5.400;2023-03-14T04:53:20;98673.13;;;11.97;100.00
47104;BME280;32853;52.164;5.400;2023-03-14T04:55:49;98657.34;;;11.87;100.00
47104;BME280;32853;52.164;5.400;2023-03-14T04:58:14;98666.84;;;11.99;100.00
47104;BME280;32853;52.164;5.400;2023-03-14T05:00:39;98669.34;;;11.89;100.00
47104;BME280;32853;52.164;5.400;2023-03-14T05:03:04;98665.06;;;11.88;100.00
47104;BME280;32853;52.164;5.400;2023-03-14T05:05:30;98672.22;;;11.86;100.00
47104;BME280;32853;52.164;5.400;2023-03-14T05:07:55;98667.44;;;11.91;100.00
47104;BME280;32853;52.164;5.400;2023-03-14T05:10:20;98664.94;;;11.79;100.00
47104;BME280;32853;52.164;5.400;2023-03-14T05:12:52;98672.22;;;11.86;100.00
47104;BME280;32853;52.164;5.400;2023-03-14T05:15:17;98682.56;;;11.88;100.00
47104;BME280;32853;52.164;5.400;2023-03-14T05:17:42;98670.19;;;11.79;100.00
47104;BME280;32853;52.164;5.400;2023-03-14T05:20:08;98658.66;;;11.81;100.00
47104;BME280;32853;52.164;5.400;2023-03-14T05:22:39;98657.34;;;11.64;100.00
47104;BME280;32853;52.164;5.400;2023-03-14T05:25:06;98662.78;;;11.73;100.00
47104;BME280;32853;52.164;5.400;2023-03-14T05:27:31;98653.91;;;11.64;100.00
47104;BME280;32853;52.164;5.400;2023-03-14T05:29:58;98644.97;;;11.67;100.00
47104;BME280;32853;52.164;5.400;2023-03-14T05:32:36;98650.22;;;11.55;100.00
47104;BME280;32853;52.164;5.400;2023-03-14T05:35:01;98658.41;;;11.62;100.00
47104;BME280;32853;52.164;5.400;2023-03-14T05:37:26;98657.00;;;11.58;100.00
47104;BME280;32853;52.164;5.400;2023-03-14T05:39:51;98653.78;;;11.54;100.00
47104;BME280;32853;52.164;5.400;2023-03-14T05:42:19;98648.69;;;11.53;100.00
47104;BME280;32853;52.164;5.400;2023-03-14T05:44:44;98649.50;;;11.64;100.00
47104;BME280;32853;52.164;5.400;2023-03-14T05:47:09;98663.44;;;11.54;100.00
47104;BME280;32853;52.164;5.400;2023-03-14T05:49:35;98653.91;;;11.64;100.00
47104;BME280;32853;52.164;5.400;2023-03-14T05:52:02;98652.22;;;11.63;100.00
47104;BME280;32853;52.164;5.400;2023-03-14T05:54:31;98655.19;;;11.58;100.00
47104;BME280;32853;52.164;5.400;2023-03-14T05:57:03;98652.22;;;11.63;100.00
47104;BME280;32853;52.164;5.400;2023-03-14T05:59:38;98656.28;;;11.56;100.00
47104;BME280;32853;52.164;5.400;2023-03-14T06:02:03;98647.34;;;11.58;100.00
47104;BME280;32853;52.164;5.400;2023-03-14T06:04:29;98644.28;;;11.53;100.00
47104;BME280;32853;52.164;5.400;2023-03-14T06:06:54;98652.47;;;11.38;100.00
47104;BME280;32853;52.164;5.400;2023-03-14T06:09:20;98651.50;;;11.50;100.00
47104;BME280;32853;52.164;5.400;2023-03-14T06:11:47;98648.56;;;11.43;100.00
47104;BME280;32853;52.164;5.400;2023-03-14T06:14:12;98644.38;;;11.52;100.00
47104;BME280;32853;52.164;5.400;2023-03-14T06:16:37;98653.44;;;11.37;100.00
47104;BME280;32853;52.164;5.400;2023-03-14T06:19:03;98647.81;;;11.41;100.00
47104;BME280;32853;52.164;5.400;2023-03-14T06:21:28;98656.28;;;11.45;100.00
47104;BME280;32853;52.164;5.400;2023-03-14T06:23:53;98671.63;;;11.38;100.00
47104;BME280;32853;52.164;5.400;2023-03-14T06:26:26;98672.25;;;11.53;100.00
47104;BME280;32853;52.164;5.400;2023-03-14T06:28:51;98664.84;;;11.47;100.00
47104;BME280;32853;52.164;5.400;2023-03-14T06:31:19;98686.75;;;11.34;100.00
47104;BME280;32853;52.164;5.400;2023-03-14T06:33:57;98698.38;;;11.42;100.00
47104;BME280;32853;52.164;5.400;2023-03-14T06:36:25;98703.88;;;11.39;100.00
47104;BME280;32853;52.164;5.400;2023-03-14T06:38:50;98722.06;;;11.29;100.00
47104;BME280;32853;52.164;5.400;2023-03-14T06:41:17;98740.44;;;11.05;100.00
47104;BME280;32853;52.164;5.400;2023-03-14T06:43:43;98746.94;;;10.88;100.00
47104;BME280;32853;52.164;5.400;2023-03-14T06:46:09;98771.84;;;10.46;100.00
47104;BME280;32853;52.164;5.400;2023-03-14T06:51:19;98781.53;;;10.57;100.00
47104;BME280;32853;52.164;5.400;2023-03-14T06:53:55;98794.69;;;10.55;100.00
47104;BME280;32853;52.164;5.400;2023-03-14T06:56:21;98793.47;;;10.48;100.00
47104;BME280;32853;52.164;5.400;2023-03-14T06:58:47;98804.53;;;10.52;100.00
47104;BME280;32853;52.164;5.400;2023-03-14T07:01:27;98815.72;;;10.54;100.00
47104;BME280;32853;52.164;5.400;2023-03-14T07:03:53;98826.13;;;10.66;100.00
47104;BME280;32853;52.164;5.400;2023-03-14T07:06:23;98831.47;;;10.65;100.00
47104;BME280;32853;52.164;5.400;2023-03-14T07:08:50;98835.41;;;10.70;100.00
47104;BME280;32853;52.164;5.400;2023-03-14T07:11:15;98843.44;;;10.80;100.00
47104;BME280;32853;52.164;5.400;2023-03-14T07:13:42;98846.03;;;10.56;100.00
47104;BME280;32853;52.164;5.400;2023-03-14T07:16:11;98846.19;;;10.42;100.00
47104;BME280;32853;52.164;5.400;2023-03-14T07:18:36;98855.97;;;10.51;100.00
47104;BME280;32853;52.164;5.400;2023-03-14T07:21:11;98866.13;;;10.17;100.00
47104;BME280;32853;52.164;5.400;2023-03-14T07:23:46;98883.31;;;10.22;100.00
47104;BME280;32853;52.164;5.400;2023-03-14T07:28:46;98900.72;;;9.96;100.00
47104;BME280;32853;52.164;5.400;2023-03-14T07:33:44;98927.56;;;9.72;100.00
47104;BME280;32853;52.164;5.400;2023-03-14T07:36:11;98941.56;;;9.84;100.00
47104;BME280;32853;52.164;5.400;2023-03-14T07:38:44;98941.06;;;9.39;100.00
47104;BME280;32853;52.164;5.400;2023-03-14T07:41:11;98950.09;;;9.73;100.00
47104;BME280;32853;52.164;5.400;2023-03-14T07:46:14;98976.22;;;9.86;100.00
47104;BME280;32853;52.164;5.400;2023-03-14T07:48:40;98986.63;;;9.60;100.00
47104;BME280;32853;52.164;5.400;2023-03-14T07:51:12;99007.88;;;9.81;100.00
47104;BME280;32853;52.164;5.400;2023-03-14T07:53:45;99011.81;;;9.35;100.00
47104;BME280;32853;52.164;5.400;2023-03-14T07:56:11;99019.50;;;9.63;100.00
47104;BME280;32853;52.164;5.400;2023-03-14T07:58:36;99044.81;;;9.07;100.00
47104;BME280;32853;52.164;5.400;2023-03-14T08:01:01;99066.53;;;8.51;100.00
47104;BME280;32853;52.164;5.400;2023-03-14T08:03:27;99067.13;;;8.26;100.00
47104;BME280;32853;52.164;5.400;2023-03-14T08:05:53;99092.66;;;8.19;100.00
47104;BME280;32853;52.164;5.400;2023-03-14T08:08:18;99105.69;;;7.73;100.00
47104;BME280;32853;52.164;5.400;2023-03-14T08:10:45;99115.63;;;7.67;100.00
47104;BME280;32853;52.164;5.400;2023-03-14T08:13:11;99121.81;;;7.64;100.00
47104;BME280;32853;52.164;5.400;2023-03-14T08:15:37;99140.47;;;7.56;100.00
47104;BME280;32853;52.164;5.400;2023-03-14T08:18:04;99146.16;;;7.63;100.00
47104;BME280;32853;52.164;5.400;2023-03-14T08:20:29;99154.53;;;7.21;100.00
47104;BME280;32853;52.164;5.400;2023-03-14T08:25:28;99174.13;;;6.93;100.00
47104;BME280;32853;52.164;5.400;2023-03-14T08:27:57;99201.88;;;6.93;100.00
47104;BME280;32853;52.164;5.400;2023-03-14T08:30:23;99203.28;;;7.00;100.00
47104;BME280;32853;52.164;5.400;2023-03-14T08:32:49;99203.84;;;7.38;100.00
47104;BME280;32853;52.164;5.400;2023-03-14T08:35:14;99215.91;;;7.23;100.00
47104;BME280;32853;52.164;5.400;2023-03-14T08:37:40;99227.03;;;7.43;100.00
47104;BME280;32853;52.164;5.400;2023-03-14T08:40:06;99236.38;;;7.63;100.00
47104;BME280;32853;52.164;5.400;2023-03-14T08:42:34;99253.16;;;7.57;100.00
47104;BME280;32853;52.164;5.400;2023-03-14T08:45:01;99254.56;;;7.47;100.00
47104;BME280;32853;52.164;5.400;2023-03-14T08:47:33;99275.25;;;7.66;100.00
47104;BME280;32853;52.164;5.400;2023-03-14T08:49:58;99294.88;;;7.38;100.00
47104;BME280;32853;52.164;5.400;2023-03-14T08:52:24;99301.66;;;7.58;100.00
47104;BME280;32853;52.164;5.400;2023-03-14T08:54:49;99316.16;;;7.46;100.00
47104;BME280;32853;52.164;5.400;2023-03-14T08:57:17;99311.72;;;7.81;100.00
47104;BME280;32853;52.164;5.400;2023-03-14T08:59:44;99324.56;;;7.34;100.00
47104;BME280;32853;52.164;5.400;2023-03-14T09:02:11;99345.13;;;7.56;100.00
47104;BME280;32853;52.164;5.400;2023-03-14T09:04:37;99350.84;;;7.63;100.00
47104;BME280;32853;52.164;5.400;2023-03-14T09:07:04;99350.25;;;7.40;100.00
47104;BME280;32853;52.164;5.400;2023-03-14T09:09:32;99360.88;;;7.70;100.00
47104;BME280;32853;52.164;5.400;2023-03-14T09:11:58;99376.66;;;7.50;100.00
47104;BME280;32853;52.164;5.400;2023-03-14T09:14:40;99386.66;;;7.40;100.00
47104;BME280;32853;52.164;5.400;2023-03-14T09:17:10;99405.47;;;7.80;100.00
47104;BME280;32853;52.164;5.400;2023-03-14T09:19:35;99408.72;;;7.33;100.00
47104;BME280;32853;52.164;5.400;2023-03-14T09:22:00;99423.31;;;7.53;100.00
47104;BME280;32853;52.164;5.400;2023-03-14T09:24:26;99428.53;;;7.70;100.00
47104;BME280;32853;52.164;5.400;2023-03-14T09:26:52;99436.16;;;7.73;100.00
47104;BME280;32853;52.164;5.400;2023-03-14T09:29:21;99439.81;;;7.86;100.00
47104;BME280;32853;52.164;5.400;2023-03-14T09:31:46;99444.69;;;7.77;100.00
47104;BME280;32853;52.164;5.400;2023-03-14T09:34:12;99445.41;;;7.96;100.00
47104;BME280;32853;52.164;5.400;2023-03-14T09:36:38;99457.84;;;7.91;100.00
47104;BME280;32853;52.164;5.400;2023-03-14T09:39:10;99470.31;;;7.84;100.00
47104;BME280;32853;52.164;5.400;2023-03-14T09:41:48;99491.25;;;8.16;100.00
47104;BME280;32853;52.164;5.400;2023-03-14T09:44:25;99493.91;;;7.99;100.00
47104;BME280;32853;52.164;5.400;2023-03-14T09:46:53;99500.00;;;8.15;100.00
47104;BME280;32853;52.164;5.400;2023-03-14T09:51:45;99519.97;;;7.97;100.00
47104;BME280;32853;52.164;5.400;2023-03-14T09:54:17;99534.59;;;7.82;100.00
47104;BME280;32853;52.164;5.400;2023-03-14T09:56:44;99528.94;;;8.26;100.00
47104;BME280;32853;52.164;5.400;2023-03-14T09:59:09;99547.25;;;8.07;100.00
47104;BME280;32853;52.164;5.400;2023-03-14T10:01:39;99554.91;;;8.10;100.00
47104;BME280;32853;52.164;5.400;2023-03-14T10:04:18;99564.09;;;8.00;100.00
47104;BME280;32853;52.164;5.400;2023-03-14T10:06:46;99567.31;;;8.57;100.00
47104;BME280;32853;52.164;5.400;2023-03-14T10:09:18;99587.47;;;8.02;100.00
47104;BME280;32853;52.164;5.400;2023-03-14T10:11:45;99596.25;;;8.16;100.00
47104;BME280;32853;52.164;5.400;2023-03-14T10:14:11;99605.28;;;7.92;100.00
47104;BME280;32853;52.164;5.400;2023-03-14T10:16:42;99623.47;;;8.11;100.00
47104;BME280;32853;52.164;5.400;2023-03-14T10:19:15;99633.66;;;8.15;100.00
47104;BME280;32853;52.164;5.400;2023-03-14T10:21:43;99631.69;;;7.84;100.00
47104;BME280;32853;52.164;5.400;2023-03-14T10:24:27;99641.69;;;8.28;100.00
47104;BME280;32853;52.164;5.400;2023-03-14T10:26:54;99654.28;;;8.37;100.00
47104;BME280;32853;52.164;5.400;2023-03-14T10:29:21;99667.09;;;8.59;100.00
47104;BME280;32853;52.164;5.400;2023-03-14T10:34:21;99684.47;;;8.93;100.00
47104;BME280;32853;52.164;5.400;2023-03-14T10:36:46;99698.53;;;8.56;100.00
47104;BME280;32853;52.164;5.400;2023-03-14T10:39:27;99709.66;;;8.24;100.00
47104;BME280;32853;52.164;5.400;2023-03-14T10:42:14;99703.41;;;8.09;100.00
47104;BME280;32853;52.164;5.400;2023-03-14T10:44:41;99736.06;;;8.16;100.00
47104;BME280;32853;52.164;5.400;2023-03-14T10:47:12;99743.53;;;8.05;100.00
47104;BME280;32853;52.164;5.400;2023-03-14T10:52:20;99775.59;;;7.28;100.00
47104;BME280;32853;52.164;5.400;2023-03-14T10:54:53;99790.03;;;7.15;100.00
47104;BME280;32853;52.164;5.400;2023-03-14T10:57:20;99787.06;;;7.24;100.00
47104;BME280;32853;52.164;5.400;2023-03-14T10:59:52;99801.13;;;7.60;100.00
47104;BME280;32853;52.164;5.400;2023-03-14T11:02:28;99812.22;;;7.63;100.00
47104;BME280;32853;52.164;5.400;2023-03-14T11:07:57;99826.41;;;7.76;100.00
47104;BME280;32853;52.164;5.400;2023-03-14T11:26:32;99891.34;;;9.11;100.00
47104;BME280;32853;52.164;5.400;2023-03-14T11:31:34;99902.38;;;8.99;100.00
47104;BME280;32853;52.164;5.400;2023-03-14T11:37:00;99924.69;;;9.05;89.09
47104;BME280;32853;52.164;5.400;2023-03-14T11:39:27;99932.13;;;8.95;80.74
47104;BME280;32853;52.164;5.400;2023-03-14T11:41:54;99951.09;;;9.16;82.17
47104;BME280;32853;52.164;5.400;2023-03-14T11:47:08;99944.03;;;9.54;80.30
47104;BME280;32853;52.164;5.400;2023-03-14T11:49:38;99963.53;;;9.11;75.87
47104;BME280;32853;52.164;5.400;2023-03-14T11:52:19;99967.75;;;9.67;76.13
47104;BME280;32853;52.164;5.400;2023-03-14T11:57:18;99985.78;;;9.71;67.26
47104;BME280;32853;52.164;5.400;2023-03-14T12:00:19;99972.06;;;9.68;64.06
47104;BME280;32853;52.164;5.400;2023-03-14T12:05:19;99990.94;;;9.90;61.54
47104;BME280;32853;52.164;5.400;2023-03-14T12:10:14;100005.06;;;10.03;63.06
47104;BME280;32853;52.164;5.400;2023-03-14T12:12:40;100023.97;;;9.91;63.91
47104;BME280;32853;52.164;5.400;2023-03-14T12:15:05;100026.03;;;10.19;63.76
47104;BME280;32853;52.164;5.400;2023-03-14T12:17:42;100026.56;;;9.74;59.87
47104;BME280;32853;52.164;5.400;2023-03-14T12:23:22;100034.28;;;10.11;57.79
47104;BME280;32853;52.164;5.400;2023-03-14T12:25:32;100037.88;;;9.92;57.60
47104;BME280;32853;52.164;5.400;2023-03-14T12:35:47;100074.59;;;9.88;56.14
47104;BME280;32853;52.164;5.400;2023-03-14T12:38:23;100071.47;;;9.63;53.00
47104;BME280;32853;52.164;5.400;2023-03-14T12:46:14;100089.56;;;10.71;53.76
47104;BME280;32853;52.164;5.400;2023-03-14T12:48:41;100082.63;;;10.70;51.49
47104;BME280;32853;52.164;5.400;2023-03-14T12:51:27;100091.50;;;9.99;50.33
47104;BME280;32853;52.164;5.400;2023-03-14T13:01:55;100116.56;;;10.03;53.55
47104;BME280;32853;52.164;5.400;2023-03-14T13:04:43;100129.75;;;10.36;52.59
47104;BME280;32853;52.164;5.400;2023-03-14T13:09:55;100138.06;;;10.44;50.63
47104;BME280;32853;52.164;5.400;2023-03-14T13:12:26;100142.78;;;9.82;50.36
47104;BME280;32853;52.164;5.400;2023-03-14T13:14:53;100143.16;;;10.11;50.72
47104;BME280;32853;52.164;5.400;2023-03-14T13:17:32;100157.03;;;10.47;50.88
47104;BME280;32853;52.164;5.400;2023-03-14T13:20:00;100157.59;;;10.18;48.54
47104;BME280;32853;52.164;5.400;2023-03-14T13:22:28;100163.66;;;9.65;49.27
47104;BME280;32853;52.164;5.400;2023-03-14T13:25:02;100166.19;;;9.67;49.14
47104;BME280;32853;52.164;5.400;2023-03-14T13:27:31;100174.72;;;10.06;49.63
47104;BME280;32853;52.164;5.400;2023-03-14T13:29:58;100191.47;;;10.38;50.04
47104;BME280;32853;52.164;5.400;2023-03-14T13:32:27;100190.16;;;10.82;49.98
47104;BME280;32853;52.164;5.400;2023-03-14T13:34:58;100195.84;;;10.38;48.45
47104;BME280;32853;52.164;5.400;2023-03-14T13:37:27;100208.63;;;10.79;48.70
47104;BME280;32853;52.164;5.400;2023-03-14T13:39:53;100201.47;;;10.99;48.69
47104;BME280;32853;52.164;5.400;2023-03-14T13:42:20;100210.59;;;10.03;48.09
47104;BME280;32853;52.164;5.400;2023-03-14T13:44:47;100213.63;;;10.48;48.88
47104;BME280;32853;52.164;5.400;2023-03-14T13:47:14;100230.25;;;10.47;49.64
47104;BME280;32853;52.164;5.400;2023-03-14T13:49:40;100224.75;;;10.16;48.62
47104;BME280;32853;52.164;5.400;2023-03-14T13:52:21;100226.81;;;10.28;49.42
47104;BME280;32853;52.164;5.400;2023-03-14T13:54:47;100250.91;;;10.52;49.89
47104;BME280;32853;52.164;5.400;2023-03-14T13:57:12;100256.13;;;10.35;51.28
47104;BME280;32853;52.164;5.400;2023-03-14T13:59:45;100263.47;;;10.08;51.70
47104;BME280;32853;52.164;5.400;2023-03-14T14:02:22;100262.91;;;10.20;54.26
47104;BME280;32853;52.164;5.400;2023-03-14T14:04:51;100269.03;;;10.38;54.72
47104;BME280;32853;52.164;5.400;2023-03-14T14:07:17;100281.41;;;10.15;54.93
47104;BME280;32853;52.164;5.400;2023-03-14T14:09:46;100287.41;;;10.17;52.73
47104;BME280;32853;52.164;5.400;2023-03-14T14:12:13;100288.53;;;10.31;52.07
47104;BME280;32853;52.164;5.400;2023-03-14T14:17:12;100308.28;;;9.61;50.40
47104;BME280;32853;52.164;5.400;2023-03-14T14:19:41;100327.53;;;9.58;50.44
47104;BME280;32853;52.164;5.400;2023-03-14T14:22:08;100321.34;;;9.00;49.73
47104;BME280;32853;52.164;5.400;2023-03-14T14:24:35;100326.44;;;9.23;51.06
47104;BME280;32853;52.164;5.400;2023-03-14T14:32:42;100355.63;;;9.33;49.24
47104;BME280;32853;52.164;5.400;2023-03-14T14:35:08;100362.19;;;9.21;49.74
47104;BME280;32853;52.164;5.400;2023-03-14T14:37:40;100362.06;;;9.24;50.87
47104;BME280;32853;52.164;5.400;2023-03-14T14:40:07;100372.66;;;9.20;51.50
47104;BME280;32853;52.164;5.400;2023-03-14T14:42:33;100376.28;;;9.38;50.20
47104;BME280;32853;52.164;5.400;2023-03-14T14:47:47;100395.03;;;9.47;50.16
47104;BME280;32853;52.164;5.400;2023-03-14T14:50:34;100390.81;;;9.64;50.35
47104;BME280;32853;52.164;5.400;2023-03-14T14:53:02;100399.16;;;9.31;50.90
47104;BME280;32853;52.164;5.400;2023-03-14T14:55:32;100396.22;;;8.98;50.02
47104;BME280;32853;52.164;5.400;2023-03-14T14:57:58;100407.09;;;9.50;50.91
47104;BME280;32853;52.164;5.400;2023-03-14T15:00:35;100411.84;;;9.60;49.89